Msm Dolores — 5BQF3 — position and weather

sailwx.info

Track history (hours):
 
Tides and Currents Weather Stations Pressure Air Temp Water Temp Dewpoint Dewpoint Depression Visibility Wind Speed Wind Dir Waves Ship Positions

Msm Dolores

Last reported at 2018-Jan-31 23:55 UTC. Time now 2018-Feb-20 17:32 UTC.
Position S 05°44' E 011°20'.
Warning: this ship's position is 19 days out of date.

Length 110 m; draft 3.4 m.

Type: Ship (hazmat cat A). MMSI: 210047000.

Date/timePositionNaut miles runAvg speedWind from/ knotsBaromVisibWave heightAir tempDewpointWater temp
2018-Jan-31 23:55S 05°44' E 011°20'9 9.5
2018-Jan-31 22:58S 05°37' E 011°15'5 9.8
2018-Jan-31 22:30S 05°33' E 011°12'15 9.7
2018-Jan-31 20:58S 05°21' E 011°03'5 9.8
2018-Jan-31 20:30S 05°18' E 011°00'  
2018-Jan-22 16:53N 06°54' W 013°45'4911.2
2018-Jan-22 12:30N 07°25' W 014°23'2611.2
2018-Jan-22 10:13N 07°43' W 014°43'211.1
2018-Jan-22 10:00N 07°44' W 014°44'611.0
2018-Jan-22 09:30N 07°48' W 014°48'611.4
2018-Jan-22 08:56N 07°52' W 014°53'511.4
2018-Jan-22 08:30N 07°56' W 014°57'511.1
2018-Jan-22 08:00N 07°59' W 015°01'611.1
2018-Jan-22 07:30N 08°03' W 015°05'611.0
2018-Jan-22 07:00N 08°07' W 015°10'511.0
2018-Jan-22 06:30N 08°10' W 015°14'3211.0
2018-Jan-22 03:38N 08°30' W 015°39'111.1
2018-Jan-22 03:30N 08°31' W 015°40'610.9
2018-Jan-22 02:59N 08°34' W 015°44'5 9.8
2018-Jan-22 02:30N 08°39' W 015°46'510.7
2018-Jan-22 02:00N 08°44' W 015°46'510.7
2018-Jan-22 01:30N 08°49' W 015°46'611.4
2018-Jan-22 01:00N 08°55' W 015°47'810.2
2018-Jan-22 00:13N 09°03' W 015°47'210.6
2018-Jan-22 00:00N 09°05' W 015°47'  
Track history (hours):
 
Tides and Currents Weather Stations Pressure Air Temp Water Temp Dewpoint Dewpoint Depression Visibility Wind Speed Wind Dir Waves Ship Positions

Msm Dolores

Last reported at 2018-Jan-31 23:55 UTC. Time now 2018-Feb-20 17:32 UTC.
Position S 05°44' E 011°20'.
Warning: this ship's position is 19 days out of date.

Length 110 m; draft 3.4 m.

Type: Ship (hazmat cat A). MMSI: 210047000.

Date/timePositionNaut miles runAvg speedWind from/ knotsBaromVisibWave heightAir tempDewpointWater temp
2018-Jan-31 23:55S 05°44' E 011°20'9 9.5
2018-Jan-31 22:58S 05°37' E 011°15'5 9.8
2018-Jan-31 22:30S 05°33' E 011°12'15 9.7
2018-Jan-31 20:58S 05°21' E 011°03'5 9.8
2018-Jan-31 20:30S 05°18' E 011°00'  
2018-Jan-22 16:53N 06°54' W 013°45'4911.2
2018-Jan-22 12:30N 07°25' W 014°23'2611.2
2018-Jan-22 10:13N 07°43' W 014°43'211.1
2018-Jan-22 10:00N 07°44' W 014°44'611.0
2018-Jan-22 09:30N 07°48' W 014°48'611.4
2018-Jan-22 08:56N 07°52' W 014°53'511.4
2018-Jan-22 08:30N 07°56' W 014°57'511.1
2018-Jan-22 08:00N 07°59' W 015°01'611.1
2018-Jan-22 07:30N 08°03' W 015°05'611.0
2018-Jan-22 07:00N 08°07' W 015°10'511.0
2018-Jan-22 06:30N 08°10' W 015°14'3211.0
2018-Jan-22 03:38N 08°30' W 015°39'111.1
2018-Jan-22 03:30N 08°31' W 015°40'610.9
2018-Jan-22 02:59N 08°34' W 015°44'5 9.8
2018-Jan-22 02:30N 08°39' W 015°46'510.7
2018-Jan-22 02:00N 08°44' W 015°46'510.7
2018-Jan-22 01:30N 08°49' W 015°46'611.4
2018-Jan-22 01:00N 08°55' W 015°47'810.2
2018-Jan-22 00:13N 09°03' W 015°47'210.6
2018-Jan-22 00:00N 09°05' W 015°47'  

Dump ship's entire track history